Time;durP1;ratioP1;P1;durP2;ratioP2;P2;SDS_P1;SDS_P2;PMS_P1;PMS_P2;Temp;Humidity;BMP_temperature;BMP_pressure;BME280_temperature;BME280_humidity;BME280_pressure;Samples;Min_cycle;Max_cycle;Signal;HPM_P1;HPM_P2
2023/04/23 00:01:58;;;;;;;52.30;26.67;;;;;;;7.82;100.00;100706.28;4859747;29;20059;-75
2023/04/23 00:04:25;;;;;;;56.88;28.38;;;;;;;7.81;100.00;100702.00;4893926;29;20046;-75
2023/04/23 00:06:51;;;;;;;59.25;29.00;;;;;;;7.81;100.00;100699.34;4877847;29;20477;-75
2023/04/23 00:09:17;;;;;;;60.25;32.03;;;;;;;7.80;100.00;100697.66;4893993;29;20991;-75
2023/04/23 00:11:43;;;;;;;53.00;30.23;;;;;;;7.77;100.00;100694.56;4894068;29;20056;-75
2023/04/23 00:14:08;;;;;;;56.70;31.52;;;;;;;7.76;100.00;100691.09;4877185;29;20036;-75
2023/04/23 00:16:34;;;;;;;48.95;28.45;;;;;;;7.71;100.00;100690.81;4875992;29;20043;-75
2023/04/23 00:18:59;;;;;;;51.60;26.95;;;;;;;7.72;100.00;100691.63;4876091;29;20076;-75
2023/04/23 00:21:26;;;;;;;55.13;29.83;;;;;;;7.66;100.00;100686.03;4874804;29;20029;-75
2023/04/23 00:23:51;;;;;;;55.17;26.30;;;;;;;7.67;100.00;100684.19;4876165;29;20108;-76
2023/04/23 00:26:17;;;;;;;49.50;26.98;;;;;;;7.65;100.00;100681.75;4876017;29;20462;-75
2023/04/23 00:28:42;;;;;;;53.15;29.15;;;;;;;7.61;100.00;100677.78;4876099;29;20036;-75
2023/04/23 00:31:08;;;;;;;49.03;27.48;;;;;;;7.55;100.00;100670.56;4875800;29;20089;-75
2023/04/23 00:33:33;;;;;;;50.97;27.35;;;;;;;7.57;100.00;100678.31;4859438;29;20043;-75
2023/04/23 00:35:58;;;;;;;49.10;25.65;;;;;;;7.46;100.00;100664.50;4876047;29;20061;-75
2023/04/23 00:38:25;;;;;;;50.95;26.17;;;;;;;7.50;100.00;100664.16;4875840;29;20129;-75
2023/04/23 00:40:50;;;;;;;49.45;24.40;;;;;;;7.45;100.00;100664.69;4859466;29;20040;-75
2023/04/23 00:43:16;;;;;;;46.05;22.58;;;;;;;7.43;100.00;100654.25;4875943;29;20041;-75
2023/04/23 00:45:41;;;;;;;47.45;24.90;;;;;;;7.42;100.00;100655.25;4876827;29;20540;-75
2023/04/23 00:48:07;;;;;;;47.50;23.00;;;;;;;7.36;100.00;100645.38;4875887;29;20152;-75
2023/04/23 00:50:33;;;;;;;46.53;23.63;;;;;;;7.37;100.00;100652.31;4875797;29;20029;-75
2023/04/23 00:52:58;;;;;;;44.97;24.48;;;;;;;7.34;100.00;100652.69;4874594;29;20389;-75
2023/04/23 00:55:24;;;;;;;49.08;26.02;;;;;;;7.30;100.00;100645.28;4875871;29;20184;-75
2023/04/23 00:57:49;;;;;;;40.20;22.42;;;;;;;7.29;100.00;100640.97;4876833;29;21039;-76
2023/04/23 01:00:15;;;;;;;45.15;25.17;;;;;;;7.24;100.00;100637.03;4877993;29;20052;-76
2023/04/23 01:02:42;;;;;;;44.85;25.05;;;;;;;7.25;100.00;100641.31;4897029;29;20040;-76
2023/04/23 01:05:10;;;;;;;46.33;23.17;;;;;;;7.24;100.00;100642.31;4897033;29;20388;-75
2023/04/23 01:07:36;;;;;;;46.45;23.45;;;;;;;7.24;100.00;100638.84;4896909;29;20037;-76
2023/04/23 01:10:04;;;;;;;42.72;22.98;;;;;;;7.25;100.00;100641.31;4896886;29;20024;-75
2023/04/23 01:12:30;;;;;;;46.53;25.17;;;;;;;7.30;100.00;100646.09;4896936;29;20040;-75
2023/04/23 01:14:55;;;;;;;42.22;21.40;;;;;;;7.32;100.00;100630.00;4896570;29;20033;-75
2023/04/23 01:17:21;;;;;;;41.15;22.88;;;;;;;7.33;100.00;100637.75;4879959;29;20076;-75
2023/04/23 01:19:47;;;;;;;48.30;25.20;;;;;;;7.30;100.00;100627.50;4896651;29;20500;-75
2023/04/23 01:22:14;;;;;;;39.95;21.58;;;;;;;7.31;100.00;100623.88;4896671;29;20099;-75
2023/04/23 01:24:41;;;;;;;44.80;23.17;;;;;;;7.37;100.00;100627.63;4892237;29;20058;-75
2023/04/23 01:27:07;;;;;;;41.42;21.83;;;;;;;7.36;100.00;100624.16;4878255;29;20032;-75
2023/04/23 01:29:33;;;;;;;41.53;23.25;;;;;;;7.39;100.00;100615.00;4864844;29;20047;-75
2023/04/23 01:31:59;;;;;;;38.28;20.58;;;;;;;7.44;100.00;100621.41;4878511;29;20057;-75
2023/04/23 01:34:24;;;;;;;41.80;21.38;;;;;;;7.37;100.00;100611.72;4877462;29;20033;-75
2023/04/23 01:36:51;;;;;;;38.83;20.20;;;;;;;7.47;100.00;100622.88;4891446;29;20024;-75
2023/04/23 01:39:17;;;;;;;41.65;21.80;;;;;;;7.46;100.00;100615.91;4896241;29;20465;-75
2023/04/23 01:41:42;;;;;;;46.60;24.95;;;;;;;7.42;100.00;100617.31;4896021;29;20033;-75
2023/04/23 01:44:08;;;;;;;44.05;22.95;;;;;;;7.44;100.00;100621.41;4896203;29;20514;-75
2023/04/23 01:46:33;;;;;;;44.35;24.77;;;;;;;7.41;100.00;100620.94;4896400;29;20501;-75
2023/04/23 01:48:59;;;;;;;42.92;21.58;;;;;;;7.40;100.00;100619.31;4880493;29;20116;-75
2023/04/23 01:51:25;;;;;;;43.72;22.73;;;;;;;7.38;100.00;100619.47;4878273;29;20033;-75
2023/04/23 01:53:51;;;;;;;38.17;20.50;;;;;;;7.40;100.00;100612.16;4878256;29;20104;-75
2023/04/23 01:56:18;;;;;;;41.20;22.08;;;;;;;7.36;100.00;100610.91;4878284;29;20033;-75
2023/04/23 01:58:44;;;;;;;39.95;22.60;;;;;;;7.42;100.00;100617.31;4878247;29;20024;-76
2023/04/23 02:01:09;;;;;;;39.00;21.95;;;;;;;7.33;100.00;100586.53;4878079;29;20953;-76
2023/04/23 02:03:35;;;;;;;36.72;21.83;;;;;;;7.47;100.00;100612.28;4878013;29;20029;-75
2023/04/23 02:06:00;;;;;;;39.70;22.42;;;;;;;7.46;100.00;100611.41;4877557;29;20036;-75
2023/04/23 02:08:26;;;;;;;36.95;21.15;;;;;;;7.48;100.00;100608.59;4877948;29;20037;-75
2023/04/23 02:10:52;;;;;;;34.92;19.83;;;;;;;7.46;100.00;100597.34;4877842;29;20028;-75
2023/04/23 02:13:17;;;;;;;36.05;20.90;;;;;;;7.46;100.00;100607.94;4895067;29;20043;-75
2023/04/23 02:15:43;;;;;;;32.45;18.55;;;;;;;7.45;100.00;100598.34;4895559;29;20036;-75
2023/04/23 02:18:09;;;;;;;35.78;19.42;;;;;;;7.40;100.00;100592.78;4884147;29;20021;-75
2023/04/23 02:20:37;;;;;;;36.63;20.85;;;;;;;7.49;100.00;100599.63;4877815;29;20033;-75
2023/04/23 02:23:03;;;;;;;35.75;18.67;;;;;;;7.48;100.00;100598.00;4895604;29;20036;-75
2023/04/23 02:25:30;;;;;;;33.13;17.05;;;;;;;7.42;100.00;100594.25;4895562;29;20036;-75
2023/04/23 02:27:56;;;;;;;37.08;19.27;;;;;;;7.46;100.00;100598.16;4895530;29;20036;-75
2023/04/23 02:30:21;;;;;;;38.55;20.60;;;;;;;7.45;100.00;100595.69;4895399;29;20044;-75
2023/04/23 02:32:47;;;;;;;33.30;18.50;;;;;;;7.44;100.00;100597.53;4880472;29;20057;-75
2023/04/23 02:35:12;;;;;;;33.50;17.98;;;;;;;7.45;100.00;100595.69;4877385;29;20049;-75
2023/04/23 02:37:38;;;;;;;36.00;19.95;;;;;;;7.42;100.00;100588.94;4883629;29;20033;-75
2023/04/23 02:40:07;;;;;;;32.97;18.55;;;;;;;7.44;100.00;100594.03;4878242;29;20507;-75
2023/04/23 02:42:33;;;;;;;35.63;18.65;;;;;;;7.40;100.00;100582.97;4895179;29;20465;-75
2023/04/23 02:44:58;;;;;;;35.03;18.58;;;;;;;7.45;100.00;100590.41;4895401;29;20044;-75
2023/04/23 02:47:23;;;;;;;33.88;20.65;;;;;;;7.43;100.00;100587.09;4894959;29;20428;-75
2023/04/23 02:49:49;;;;;;;33.92;19.17;;;;;;;7.44;100.00;100591.38;4895000;29;20032;-75
2023/04/23 02:52:14;;;;;;;34.45;19.08;;;;;;;7.47;100.00;100597.16;4890542;29;20032;-75
2023/04/23 02:54:39;;;;;;;35.78;18.80;;;;;;;7.51;100.00;100594.97;4894995;29;20051;-75
2023/04/23 02:57:05;;;;;;;32.17;17.90;;;;;;;7.54;100.00;100596.44;4878199;29;20057;-75
2023/04/23 02:59:30;;;;;;;31.52;18.63;;;;;;;7.55;100.00;100582.19;4894926;29;20106;-75
2023/04/23 03:01:56;;;;;;;34.45;17.95;;;;;;;7.54;100.00;100588.47;4862573;29;20036;-75
2023/04/23 03:04:21;;;;;;;30.25;18.27;;;;;;;7.54;100.00;100591.94;4877916;29;20045;-75
2023/04/23 03:06:47;;;;;;;33.72;17.25;;;;;;;7.56;100.00;100595.25;4877885;29;20195;-75
2023/04/23 03:09:12;;;;;;;33.92;17.33;;;;;;;7.59;100.00;100594.06;4878019;29;20040;-76
2023/04/23 03:11:38;;;;;;;36.20;18.50;;;;;;;7.61;100.00;100602.66;4894662;29;20535;-75
2023/04/23 03:14:03;;;;;;;33.22;17.95;;;;;;;7.62;100.00;100597.19;4894968;29;20040;-75
2023/04/23 03:16:30;;;;;;;34.90;18.80;;;;;;;7.68;100.00;100585.00;4859878;29;20041;-75
2023/04/23 03:18:55;;;;;;;31.17;16.05;;;;;;;7.69;100.00;100583.97;4876773;29;20358;-75
2023/04/23 03:21:21;;;;;;;31.02;18.45;;;;;;;7.73;100.00;100587.09;4860140;29;20044;-75
2023/04/23 03:23:46;;;;;;;31.48;17.92;;;;;;;7.77;100.00;100578.56;4893750;29;20535;-75
2023/04/23 03:26:12;;;;;;;29.80;18.27;;;;;;;7.82;100.00;100581.50;4894557;29;20043;-75
2023/04/23 03:28:37;;;;;;;34.70;19.33;;;;;;;7.85;100.00;100573.16;4877722;29;20112;-75
2023/04/23 03:31:03;;;;;;;32.17;19.35;;;;;;;7.90;100.00;100576.06;4894295;29;20469;-75
2023/04/23 03:33:28;;;;;;;29.20;16.77;;;;;;;7.93;100.00;100569.56;4894379;29;20491;-75
2023/04/23 03:35:53;;;;;;;29.30;18.08;;;;;;;7.97;100.00;100562.06;4894373;29;20036;-75
2023/04/23 03:38:19;;;;;;;32.25;19.30;;;;;;;8.00;100.00;100567.81;4894490;29;20115;-75
2023/04/23 03:40:45;;;;;;;29.50;18.15;;;;;;;8.00;100.00;100570.47;4886787;29;20507;-76
2023/04/23 03:43:10;;;;;;;30.20;16.85;;;;;;;8.00;100.00;100565.16;4876592;29;20048;-75
2023/04/23 03:45:36;;;;;;;29.33;17.27;;;;;;;7.98;100.00;100558.41;4876657;29;20413;-75
2023/04/23 03:48:01;;;;;;;27.73;16.60;;;;;;;8.00;100.00;100569.66;4877545;29;20638;-75
2023/04/23 03:50:26;;;;;;;28.80;15.88;;;;;;;8.00;100.00;100562.50;4877468;29;20076;-75
2023/04/23 03:52:52;;;;;;;29.70;16.85;;;;;;;8.00;100.00;100564.34;4894295;29;20081;-75
2023/04/23 03:55:19;;;;;;;26.58;16.42;;;;;;;8.04;100.00;100565.59;4894239;29;20036;-75
2023/04/23 03:57:44;;;;;;;28.15;16.48;;;;;;;8.07;100.00;100566.06;4894238;29;20028;-75
2023/04/23 04:00:10;;;;;;;28.52;16.60;;;;;;;8.08;100.00;100573.03;4894121;29;20036;-75
2023/04/23 04:02:37;;;;;;;28.60;17.38;;;;;;;8.11;100.00;100567.34;4894080;29;20476;-75
2023/04/23 04:05:02;;;;;;;29.73;17.55;;;;;;;8.15;100.00;100570.44;4894175;29;20393;-75
2023/04/23 04:07:28;;;;;;;28.85;17.08;;;;;;;8.15;100.00;100553.66;4894077;29;20036;-75
2023/04/23 04:09:53;;;;;;;30.33;16.58;;;;;;;8.19;100.00;100563.75;4894108;29;20037;-75
2023/04/23 04:12:19;;;;;;;30.80;17.40;;;;;;;8.18;100.00;100556.78;4894215;29;20036;-75
2023/04/23 04:14:44;;;;;;;26.88;15.95;;;;;;;8.14;100.00;100552.84;4893968;29;20039;-75
2023/04/23 04:17:11;;;;;;;27.75;16.38;;;;;;;8.22;100.00;100570.50;4894101;29;20088;-75
2023/04/23 04:19:36;;;;;;;28.05;15.73;;;;;;;8.25;100.00;100575.44;4877528;29;20039;-76
2023/04/23 04:22:02;;;;;;;26.65;15.35;;;;;;;8.26;100.00;100574.44;4893931;29;20032;-76
2023/04/23 04:24:31;;;;;;;28.73;16.13;;;;;;;8.26;100.00;100574.44;4893931;29;20185;-76
2023/04/23 04:26:59;;;;;;;25.85;14.57;;;;;;;8.25;100.00;100573.63;4893985;29;20039;-75
2023/04/23 04:29:25;;;;;;;27.05;15.73;;;;;;;8.16;100.00;100564.13;4893806;29;20111;-75
2023/04/23 04:31:51;;;;;;;28.23;15.45;;;;;;;8.27;100.00;100586.72;4876817;29;20139;-75
2023/04/23 04:34:16;;;;;;;24.52;15.65;;;;;;;8.29;100.00;100582.84;4893949;29;20068;-75
2023/04/23 04:36:42;;;;;;;26.23;14.73;;;;;;;8.29;100.00;100580.19;4897381;29;20032;-75
2023/04/23 04:39:09;;;;;;;26.67;15.25;;;;;;;8.30;100.00;100581.84;4897271;29;20536;-75
2023/04/23 04:41:36;;;;;;;26.35;15.38;;;;;;;8.29;100.00;100582.03;4897382;29;20072;-75
2023/04/23 04:44:01;;;;;;;27.05;15.35;;;;;;;8.28;100.00;100583.06;4897255;29;20063;-75
2023/04/23 04:46:28;;;;;;;25.25;14.40;;;;;;;8.28;100.00;100580.41;4880349;29;20429;-75
2023/04/23 04:48:53;;;;;;;25.05;14.15;;;;;;;8.29;100.00;100582.03;4897331;29;20033;-75
2023/04/23 04:51:19;;;;;;;30.42;16.05;;;;;;;8.30;100.00;100581.00;4897077;29;20028;-75
2023/04/23 04:53:44;;;;;;;27.48;15.23;;;;;;;8.29;100.00;100576.72;4879227;29;20107;-75
2023/04/23 04:56:10;;;;;;;25.88;14.35;;;;;;;8.25;100.00;100570.13;4879066;29;20186;-75
2023/04/23 04:58:35;;;;;;;22.95;13.32;;;;;;;8.25;100.00;100570.97;4896492;29;20112;-75
2023/04/23 05:01:01;;;;;;;24.55;12.98;;;;;;;8.17;100.00;100565.75;4896415;29;20032;-75
2023/04/23 05:03:26;;;;;;;24.83;13.70;;;;;;;8.23;100.00;100575.66;4880082;29;20036;-75
2023/04/23 05:05:57;;;;;;;25.65;13.43;;;;;;;8.22;100.00;100567.84;4896946;29;20402;-75
2023/04/23 05:08:23;;;;;;;24.92;14.40;;;;;;;8.33;100.00;100573.50;4896897;29;20043;-75
2023/04/23 05:10:49;;;;;;;23.90;14.88;;;;;;;8.66;100.00;100572.19;4896745;29;20400;-75
2023/04/23 05:13:15;;;;;;;25.52;14.90;;;;;;;8.99;100.00;100583.13;4877187;29;20116;-75
2023/04/23 05:15:41;;;;;;;24.73;13.95;;;;;;;9.13;100.00;100582.19;4877513;29;20047;-74
2023/04/23 05:18:09;;;;;;;30.15;15.63;;;;;;;9.40;100.00;100577.88;4878834;29;20032;-73
2023/04/23 05:20:35;;;;;;;25.05;14.23;;;;;;;9.86;100.00;100577.28;4877414;29;20397;-74
2023/04/23 05:23:01;;;;;;;23.30;13.80;;;;;;;10.03;100.00;100574.28;4878732;29;20062;-74
2023/04/23 05:25:28;;;;;;;23.73;13.07;;;;;;;10.01;100.00;100571.81;4878655;29;20037;-73
2023/04/23 05:27:54;;;;;;;22.58;13.45;;;;;;;9.85;100.00;100569.50;4878603;29;20044;-73
2023/04/23 05:30:19;;;;;;;32.25;14.85;;;;;;;9.66;100.00;100579.03;4878414;29;20021;-73
2023/04/23 05:32:44;;;;;;;22.27;12.32;;;;;;;9.55;100.00;100585.75;4895897;29;20084;-73
2023/04/23 05:35:10;;;;;;;23.70;13.65;;;;;;;9.56;100.00;100583.91;4896385;29;20133;-73
2023/04/23 05:37:35;;;;;;;27.17;14.15;;;;;;;10.01;100.00;100587.81;4879383;29;20101;-73
2023/04/23 05:40:01;;;;;;;26.10;14.70;;;;;;;10.62;100.00;100570.97;4879434;29;20052;-73
2023/04/23 05:42:27;;;;;;;24.80;13.55;;;;;;;11.11;100.00;100574.25;4896350;29;20040;-73
2023/04/23 05:44:52;;;;;;;24.23;13.75;;;;;;;11.13;100.00;100573.03;4896131;29;20043;-74
2023/04/23 05:47:17;;;;;;;21.40;12.20;;;;;;;11.13;100.00;100577.50;4878808;29;20431;-73
2023/04/23 05:49:43;;;;;;;23.27;13.02;;;;;;;11.07;100.00;100587.16;4863957;29;20051;-74
2023/04/23 05:52:08;;;;;;;20.42;12.07;;;;;;;10.98;100.00;100583.09;4896173;29;20036;-74
2023/04/23 05:54:34;;;;;;;21.85;12.98;;;;;;;10.83;100.00;100575.28;4879217;29;20143;-74
2023/04/23 05:56:59;;;;;;;22.60;12.52;;;;;;;10.72;100.00;100579.38;4895948;29;20480;-74
2023/04/23 05:59:25;;;;;;;21.85;14.13;;;;;;;10.58;100.00;100575.03;4895926;29;20029;-74
2023/04/23 06:01:51;;;;;;;21.95;11.25;;;;;;;10.50;100.00;100580.56;4895941;29;20493;-74
2023/04/23 06:04:16;;;;;;;21.23;12.38;;;;;;;10.43;100.00;100569.09;4896138;29;20115;-73
2023/04/23 06:06:42;;;;;;;21.58;12.10;;;;;;;10.71;100.00;100572.38;4879352;29;20183;-73
2023/04/23 06:09:08;;;;;;;22.33;12.63;;;;;;;11.17;100.00;100566.22;4879121;29;20032;-74
2023/04/23 06:11:34;;;;;;;19.77;11.90;;;;;;;11.30;100.00;100576.06;4895889;29;20473;-74
2023/04/23 06:14:01;;;;;;;22.77;12.02;;;;;;;11.31;100.00;100580.38;4878959;29;20124;-74
2023/04/23 06:16:26;;;;;;;22.92;11.35;;;;;;;11.29;100.00;100582.44;4895746;29;20029;-74
2023/04/23 06:18:52;;;;;;;18.48;10.73;;;;;;;11.29;100.00;100585.13;4895512;29;20051;-74
2023/04/23 06:21:18;;;;;;;20.88;11.70;;;;;;;11.26;100.00;100580.16;4878873;29;20045;-73
2023/04/23 06:23:44;;;;;;;20.95;11.43;;;;;;;11.25;100.00;100575.06;4895590;29;20039;-73
2023/04/23 06:26:09;;;;;;;19.42;11.73;;;;;;;11.24;100.00;100568.91;4895420;29;20036;-73
2023/04/23 06:28:34;;;;;;;21.52;10.05;;;;;;;11.21;100.00;100566.63;4895236;29;20036;-73
2023/04/23 06:31:01;;;;;;;20.27;10.95;;;;;;;11.27;100.00;100565.81;4878399;29;20043;-74
2023/04/23 06:33:26;;;;;;;18.52;10.32;;;;;;;11.29;100.00;100562.91;4895279;29;20136;-73
2023/04/23 06:35:52;;;;;;;20.52;10.73;;;;;;;11.32;100.00;100555.31;4895213;29;20032;-73
2023/04/23 06:38:20;;;;;;;19.67;10.77;;;;;;;11.33;100.00;100550.81;4895145;29;20516;-73
2023/04/23 06:40:45;;;;;;;20.92;11.48;;;;;;;11.40;100.00;100544.41;4860274;29;20029;-73
2023/04/23 06:43:11;;;;;;;21.67;10.77;;;;;;;11.49;100.00;100539.66;4878487;29;20496;-73
2023/04/23 06:45:36;;;;;;;20.98;11.30;;;;;;;11.63;100.00;100548.44;4878180;29;20476;-73
2023/04/23 06:48:01;;;;;;;18.98;11.43;;;;;;;11.72;100.00;100549.03;4894999;29;20488;-74
2023/04/23 06:50:27;;;;;;;20.25;11.00;;;;;;;11.75;100.00;100538.75;4874339;29;20468;-73
2023/04/23 06:52:55;;;;;;;19.15;9.15;;;;;;;11.81;100.00;100545.09;4877136;29;20690;-73
2023/04/23 06:55:20;;;;;;;19.10;10.90;;;;;;;11.93;100.00;100538.09;4877098;29;20064;-74
2023/04/23 06:57:46;;;;;;;22.13;12.25;;;;;;;12.03;100.00;100533.09;4876278;29;20484;-73
2023/04/23 07:00:12;;;;;;;18.08;10.10;;;;;;;12.18;100.00;100540.84;4876832;29;20511;-73
2023/04/23 07:02:37;;;;;;;18.40;9.30;;;;;;;12.33;100.00;100535.16;4877026;29;20580;-73
2023/04/23 07:05:03;;;;;;;21.65;10.55;;;;;;;12.32;100.00;100536.22;4876974;29;20212;-73
2023/04/23 07:07:28;;;;;;;18.35;8.98;;;;;;;12.28;100.00;100540.34;4877816;29;20025;-73
2023/04/23 07:09:54;;;;;;;17.55;10.00;;;;;;;12.23;100.00;100537.50;4877064;29;20481;-73
2023/04/23 07:12:19;;;;;;;17.05;8.00;;;;;;;12.18;100.00;100534.66;4894141;29;20111;-73
2023/04/23 07:14:45;;;;;;;17.20;8.23;;;;;;;12.11;100.00;100534.69;4894549;29;20040;-73
2023/04/23 07:17:10;;;;;;;18.90;9.48;;;;;;;12.23;100.00;100537.50;4877566;29;20044;-74
2023/04/23 07:19:36;;;;;;;17.33;8.85;;;;;;;12.35;100.00;100527.75;4894258;29;20437;-73
2023/04/23 07:22:02;;;;;;;16.80;7.80;;;;;;;12.49;100.00;100528.47;4894541;29;20548;-74
2023/04/23 07:24:27;;;;;;;16.60;8.48;;;;;;;12.78;100.00;100523.50;4894609;29;20040;-74
2023/04/23 07:26:53;;;;;;;14.73;7.50;;;;;;;13.21;100.00;100526.19;4894377;29;20044;-74
2023/04/23 07:29:18;;;;;;;14.73;7.53;;;;;;;13.71;100.00;100520.72;4894442;29;20040;-74
2023/04/23 07:31:44;;;;;;;15.40;7.70;;;;;;;14.16;100.00;100523.00;4894204;29;20056;-73
2023/04/23 07:34:09;;;;;;;13.73;6.70;;;;;;;14.52;100.00;100529.28;4892800;29;20032;-74
2023/04/23 07:36:35;;;;;;;12.38;6.47;;;;;;;15.02;100.00;100533.44;4875503;29;20124;-74
2023/04/23 07:39:00;;;;;;;8.73;5.03;;;;;;;15.66;97.20;100522.69;4876500;29;20041;-74
2023/04/23 07:41:26;;;;;;;16.33;5.57;;;;;;;16.10;91.52;100523.84;4875136;29;20037;-74
2023/04/23 07:43:51;;;;;;;13.57;6.03;;;;;;;16.21;93.11;100516.78;4876376;29;20048;-74
2023/04/23 07:46:16;;;;;;;13.10;5.55;;;;;;;16.36;91.57;100519.75;4876505;29;20386;-74
2023/04/23 07:48:42;;;;;;;12.15;5.50;;;;;;;16.60;89.81;100514.19;4876306;29;20068;-74
2023/04/23 07:51:08;;;;;;;10.30;4.68;;;;;;;16.95;90.17;100513.97;4859800;29;20166;-74
2023/04/23 07:53:34;;;;;;;9.18;5.18;;;;;;;17.45;87.80;100510.34;4876389;29;20088;-74
2023/04/23 07:55:59;;;;;;;11.10;5.22;;;;;;;18.14;84.40;100506.28;4862382;29;20429;-73
2023/04/23 07:58:24;;;;;;;10.35;4.75;;;;;;;19.13;76.75;100504.06;4893859;29;20055;-74
2023/04/23 08:00:50;;;;;;;9.98;5.82;;;;;;;20.56;71.76;100499.88;4893924;29;20095;-75
2023/04/23 08:03:15;;;;;;;8.38;5.30;;;;;;;21.72;67.45;100498.22;4894107;29;20032;-75
2023/04/23 08:05:41;;;;;;;9.90;4.35;;;;;;;22.51;61.30;100509.94;4893951;29;20087;-75
2023/04/23 08:08:07;;;;;;;14.52;4.72;;;;;;;23.20;59.42;100494.31;4893877;29;20341;-75
2023/04/23 08:10:34;;;;;;;8.40;4.35;;;;;;;23.48;55.14;100495.34;4880282;29;20032;-75
2023/04/23 08:12:59;;;;;;;9.02;3.28;;;;;;;23.83;54.78;100504.97;4880782;29;20480;-74
2023/04/23 08:15:25;;;;;;;6.53;3.95;;;;;;;24.08;52.98;100492.09;4897596;29;20040;-75
2023/04/23 08:17:50;;;;;;;12.18;6.38;;;;;;;24.49;52.41;100497.72;4897454;29;20073;-75
2023/04/23 08:20:16;;;;;;;7.80;3.90;;;;;;;24.90;51.32;100488.81;4880394;29;20051;-75
2023/04/23 08:22:42;;;;;;;13.18;4.00;;;;;;;24.72;48.84;100484.25;4897469;29;20089;-74
2023/04/23 08:25:08;;;;;;;6.25;3.08;;;;;;;24.65;50.16;100490.09;4897482;29;20127;-76
2023/04/23 08:27:33;;;;;;;9.30;3.70;;;;;;;24.91;51.60;100493.13;4897422;29;20033;-74
2023/04/23 08:29:59;;;;;;;7.47;3.58;;;;;;;25.36;50.05;100481.66;4897535;29;20115;-74
2023/04/23 08:32:24;;;;;;;5.22;2.50;;;;;;;25.55;47.26;100487.00;4897152;29;20052;-74
2023/04/23 08:34:50;;;;;;;7.95;3.80;;;;;;;25.98;47.60;100484.69;4897067;29;20155;-74
2023/04/23 08:37:15;;;;;;;8.13;4.03;;;;;;;26.12;48.08;100481.91;4897317;29;20037;-74
2023/04/23 08:39:40;;;;;;;7.80;3.03;;;;;;;25.96;45.80;100481.47;4896857;29;20116;-74
2023/04/23 08:42:36;;;;;;;7.55;2.97;;;;;;;26.33;53.35;100473.19;4896124;29;20032;-74
2023/04/23 08:45:03;;;;;;;6.25;3.40;;;;;;;24.78;49.17;100474.84;4875153;29;20044;-74
2023/04/23 08:47:29;;;;;;;7.28;2.80;;;;;;;22.73;52.07;100472.22;4896977;29;20040;-74
2023/04/23 08:49:57;;;;;;;10.10;2.72;;;;;;;21.23;57.34;100473.44;4896668;29;20039;-74
2023/04/23 08:52:25;;;;;;;8.13;2.78;;;;;;;20.10;61.79;100477.38;4896400;29;20033;-75
2023/04/23 08:54:59;;;;;;;7.38;3.45;;;;;;;19.52;67.91;100479.34;4879141;29;20524;-74
2023/04/23 08:57:25;;;;;;;6.82;2.33;;;;;;;18.87;69.90;100467.97;4896838;29;20032;-75
2023/04/23 08:59:51;;;;;;;5.75;2.42;;;;;;;18.52;72.09;100472.84;4896565;29;20076;-75
2023/04/23 09:02:17;;;;;;;10.38;2.30;;;;;;;18.15;70.14;100467.41;4867188;29;20039;-76
2023/04/23 09:04:44;;;;;;;9.25;3.20;;;;;;;17.95;73.38;100466.16;4866149;29;20033;-74
2023/04/23 09:07:10;;;;;;;5.22;3.10;;;;;;;17.77;72.58;100465.66;4881480;29;20053;-74
2023/04/23 09:09:40;;;;;;;8.98;2.88;;;;;;;17.80;74.15;100459.78;4881272;29;20078;-74
2023/04/23 09:12:07;;;;;;;9.98;3.13;;;;;;;17.87;72.13;100461.22;4880881;29;20052;-74
2023/04/23 09:14:34;;;;;;;8.50;2.80;;;;;;;17.73;70.66;100459.94;4881627;29;20489;-74
2023/04/23 09:17:00;;;;;;;6.60;2.20;;;;;;;17.70;74.57;100457.75;4880069;29;20033;-73
2023/04/23 09:19:27;;;;;;;2.75;2.05;;;;;;;17.77;75.14;100461.06;4881923;29;20122;-75
2023/04/23 09:21:53;;;;;;;6.75;2.28;;;;;;;17.61;72.85;100462.00;4879452;29;20080;-75
2023/04/23 09:24:21;;;;;;;7.72;2.47;;;;;;;17.55;71.55;100462.97;4879300;29;20507;-76
2023/04/23 09:26:49;;;;;;;4.50;2.35;;;;;;;17.64;72.97;100461.47;4878514;29;20041;-76
2023/04/23 09:29:17;;;;;;;6.30;1.95;;;;;;;17.82;74.78;100469.25;4896317;29;20035;-75
2023/04/23 09:31:48;;;;;;;8.57;2.95;;;;;;;17.86;70.84;100450.66;4896070;29;20057;-75
2023/04/23 09:34:18;;;;;;;;;;;;;;;18.11;73.23;100452.81;4896008;29;20571;-75
2023/04/23 09:36:49;;;;;;;6.75;3.90;;;;;;;18.06;72.00;100441.97;4895456;29;19967;-75
2023/04/23 09:39:20;;;;;;;8.20;2.60;;;;;;;17.92;72.87;100445.06;4895858;29;20027;-75
2023/04/23 09:41:46;;;;;;;7.85;2.95;;;;;;;17.63;69.39;100454.44;4896546;29;20067;-75
2023/04/23 09:44:16;;;;;;;6.13;2.17;;;;;;;17.33;71.38;100447.63;4895874;29;20524;-75
2023/04/23 09:46:42;;;;;;;8.48;1.92;;;;;;;17.20;69.88;100448.00;4886079;29;20037;-75
2023/04/23 09:49:09;;;;;;;5.65;1.92;;;;;;;17.23;69.56;100440.22;4861506;29;20089;-75
2023/04/23 09:51:39;;;;;;;3.47;2.08;;;;;;;17.30;70.87;100443.56;4879179;29;20044;-75
2023/04/23 09:54:14;;;;;;;8.93;3.20;;;;;;;17.47;72.43;100435.38;4896162;29;20032;-76
2023/04/23 09:56:43;;;;;;;7.50;2.40;;;;;;;17.90;73.14;100427.50;4885696;29;20028;-73
2023/04/23 09:59:25;;;;;;;5.60;2.50;;;;;;;18.15;69.70;100426.91;4879032;29;20037;-75
2023/04/23 10:01:51;;;;;;;9.05;1.83;;;;;;;18.19;67.62;100430.75;4865388;29;20395;-75
2023/04/23 10:04:22;;;;;;;9.48;1.77;;;;;;;18.11;66.63;100429.31;4880779;29;20031;-73
2023/04/23 10:06:54;;;;;;;1.90;1.05;;;;;;;17.97;65.90;100430.78;4886282;29;20036;-74
2023/04/23 10:09:23;;;;;;;4.97;1.35;;;;;;;17.84;66.24;100433.91;4895450;29;20139;-74
2023/04/23 10:11:51;;;;;;;6.57;1.40;;;;;;;17.73;64.20;100431.09;4895407;29;20029;-74
2023/04/23 10:14:17;;;;;;;11.80;2.35;;;;;;;17.75;66.82;100430.84;4895401;29;20056;-74
2023/04/23 10:16:45;;;;;;;7.47;2.53;;;;;;;17.66;66.49;100432.38;4895468;29;20081;-74
2023/04/23 10:19:14;;;;;;;6.88;2.00;;;;;;;17.55;65.79;100423.34;4877445;29;20541;-74
2023/04/23 10:21:41;;;;;;;4.85;1.95;;;;;;;17.41;66.37;100427.50;4876193;29;20032;-74
2023/04/23 10:24:10;;;;;;;6.45;1.88;;;;;;;17.32;66.00;100421.75;4877602;29;20036;-74
2023/04/23 10:26:40;;;;;;;6.75;2.13;;;;;;;17.22;67.84;100411.66;4877545;29;20025;-74
2023/04/23 10:29:13;;;;;;;4.28;1.35;;;;;;;17.46;68.98;100428.38;4887589;29;20024;-76
2023/04/23 10:31:40;;;;;;;5.95;1.50;;;;;;;17.67;66.41;100425.91;4895221;29;20515;-76
2023/04/23 10:34:06;;;;;;;9.55;2.85;;;;;;;17.75;64.88;100411.97;4878406;29;20047;-76
2023/04/23 10:36:32;;;;;;;4.80;1.95;;;;;;;17.64;65.41;100418.31;4895111;29;20108;-75
2023/04/23 10:39:02;;;;;;;3.72;1.95;;;;;;;17.58;67.25;100425.56;4895185;29;20032;-76
2023/04/23 10:41:34;;;;;;;5.20;1.92;;;;;;;17.44;70.02;100411.63;4895274;29;20048;-76
2023/04/23 10:44:00;;;;;;;5.30;1.90;;;;;;;17.48;67.92;100398.47;4895033;29;20069;-76
2023/04/23 10:46:30;;;;;;;6.22;1.67;;;;;;;17.64;67.62;100399.44;4878020;29;20075;-77
2023/04/23 10:49:15;;;;;;;5.03;2.13;;;;;;;17.80;70.57;100400.44;4878145;29;20510;-76
2023/04/23 10:51:41;;;;;;;3.45;2.00;;;;;;;17.82;69.75;100387.50;4894924;29;20392;-76
2023/04/23 10:54:11;;;;;;;8.38;3.15;;;;;;;17.87;70.36;100393.78;4877983;29;20095;-76
2023/04/23 10:56:40;;;;;;;4.57;1.73;;;;;;;17.90;67.96;100387.84;4895013;29;20028;-76
2023/04/23 10:59:07;;;;;;;12.05;3.17;;;;;;;17.99;67.44;100393.59;4894892;29;20040;-77
2023/04/23 11:01:33;;;;;;;7.30;3.30;;;;;;;18.03;69.20;100381.22;4894843;29;20028;-76
2023/04/23 11:03:59;;;;;;;6.90;3.08;;;;;;;18.16;68.07;100380.78;4894898;29;20501;-76
2023/04/23 11:06:46;;;;;;;4.35;2.30;;;;;;;18.26;66.17;100376.50;4894864;29;20029;-76
2023/04/23 11:09:30;;;;;;;7.20;1.80;;;;;;;18.14;67.42;100380.22;4877831;29;20043;-76